Time;durP1;ratioP1;P1;durP2;ratioP2;P2;SDS_P1;SDS_P2;PMS_P1;PMS_P2;Temp;Humidity;BMP_temperature;BMP_pressure;BME280_temperature;BME280_humidity;BME280_pressure;Samples;Min_cycle;Max_cycle;Signal;HPM_P1;HPM_P2
2022/08/10 00:01:26;;;;;;;6.55;6.00;;;;;;;-142.91;100.00;56616.03;4978823;28;20203;-68
2022/08/10 00:03:52;;;;;;;6.47;5.97;;;;;;;-142.91;100.00;56616.03;4979923;28;20212;-69
2022/08/10 00:06:21;;;;;;;14.88;5.68;;;;;;;-142.91;100.00;56616.03;4977430;28;20313;-67
2022/08/10 00:08:47;;;;;;;5.82;5.32;;;;;;;-142.91;100.00;56616.03;4977656;28;20209;-68
2022/08/10 00:11:14;;;;;;;6.10;5.63;;;;;;;-142.91;100.00;56616.03;4976130;28;20208;-68
2022/08/10 00:13:41;;;;;;;6.68;5.55;;;;;;;-142.91;100.00;56616.03;4976666;28;20326;-67
2022/08/10 00:16:08;;;;;;;5.45;5.15;;;;;;;-142.91;100.00;56616.03;4978866;28;20200;-66
2022/08/10 00:18:35;;;;;;;8.82;5.90;;;;;;;-142.91;100.00;56616.03;4978066;28;20212;-67
2022/08/10 00:21:02;;;;;;;5.88;5.28;;;;;;;-142.91;100.00;56616.03;4979788;28;20227;-66
2022/08/10 00:23:30;;;;;;;5.90;5.40;;;;;;;-142.91;100.00;56616.03;4978242;28;20430;-66
2022/08/10 00:25:56;;;;;;;7.72;6.95;;;;;;;-142.91;100.00;56616.03;4978461;28;20206;-67
2022/08/10 00:28:23;;;;;;;6.55;6.15;;;;;;;-142.91;100.00;56616.03;4978349;28;20630;-67
2022/08/10 00:30:50;;;;;;;7.15;6.47;;;;;;;-142.91;100.00;56616.03;4981278;28;20969;-68
2022/08/10 00:33:17;;;;;;;6.85;6.20;;;;;;;-142.91;100.00;56616.03;4977063;28;20724;-68
2022/08/10 00:35:44;;;;;;;7.72;6.57;;;;;;;-142.91;100.00;56616.03;4976560;28;20302;-68
2022/08/10 00:38:10;;;;;;;6.10;5.70;;;;;;;-142.91;100.00;56616.03;4977708;28;20211;-68
2022/08/10 00:40:39;;;;;;;8.23;7.05;;;;;;;-142.91;100.00;56616.03;4981792;28;20254;-68
2022/08/10 00:43:05;;;;;;;7.30;6.53;;;;;;;-142.91;100.00;56616.03;4979565;28;20654;-69
2022/08/10 00:45:33;;;;;;;7.28;6.78;;;;;;;-142.91;100.00;56616.03;4974235;28;20205;-69
2022/08/10 00:47:59;;;;;;;10.63;8.02;;;;;;;-142.91;100.00;56616.03;4979302;28;20243;-68
2022/08/10 00:50:27;;;;;;;7.93;7.13;;;;;;;-142.91;100.00;56616.03;4980068;28;20267;-66
2022/08/10 00:52:53;;;;;;;9.77;6.95;;;;;;;-142.91;100.00;56616.03;4979012;28;20296;-67
2022/08/10 00:55:21;;;;;;;7.82;7.25;;;;;;;-142.91;100.00;56616.03;4977044;28;20211;-69
2022/08/10 00:57:49;;;;;;;7.32;6.82;;;;;;;-142.91;100.00;56616.03;4979480;28;20676;-66
2022/08/10 01:00:17;;;;;;;8.00;7.30;;;;;;;-142.91;100.00;56616.03;4975250;28;20641;-66
2022/08/10 01:02:43;;;;;;;13.68;10.93;;;;;;;-142.91;100.00;56616.03;4978556;28;20819;-68
2022/08/10 01:05:13;;;;;;;9.60;8.75;;;;;;;-142.91;100.00;56616.03;4978043;28;20805;-68
2022/08/10 01:08:07;;;;;;;8.02;7.25;;;;;;;-142.91;100.00;56616.03;4979360;28;20270;-68
2022/08/10 01:10:41;;;;;;;6.95;6.35;;;;;;;-142.91;100.00;56616.03;4982489;28;20315;-67
2022/08/10 01:13:16;;;;;;;7.43;6.82;;;;;;;-142.91;100.00;56616.03;4978651;28;20330;-68
2022/08/10 01:15:53;;;;;;;19.63;16.05;;;;;;;-142.91;100.00;56616.03;4978820;28;20633;-67
2022/08/10 01:18:29;;;;;;;7.88;7.32;;;;;;;-142.91;100.00;56616.03;4981793;28;20731;-68
2022/08/10 01:21:32;;;;;;;7.07;6.68;;;;;;;-142.91;100.00;56616.03;4982177;28;20297;-67
2022/08/10 01:24:18;;;;;;;6.95;6.45;;;;;;;-142.91;100.00;56616.03;4954783;28;22171;-67
2022/08/10 01:27:04;;;;;;;7.50;6.90;;;;;;;-142.91;100.00;56616.03;4981168;28;20232;-66
2022/08/10 01:29:49;;;;;;;6.95;6.35;;;;;;;-142.91;100.00;56616.03;4982809;28;20370;-70
2022/08/10 01:32:24;;;;;;;6.47;6.03;;;;;;;-142.91;100.00;56616.03;4978598;28;20291;-67
2022/08/10 01:34:56;;;;;;;7.32;6.55;;;;;;;-142.91;100.00;56616.03;4980728;28;20654;-67
2022/08/10 01:37:30;;;;;;;7.07;6.57;;;;;;;-142.91;100.00;56616.03;4979371;28;20274;-67
2022/08/10 01:40:00;;;;;;;8.23;7.53;;;;;;;-142.91;100.00;56616.03;4982313;28;20228;-67
2022/08/10 01:42:30;;;;;;;7.00;6.45;;;;;;;-142.91;100.00;56616.03;4981776;28;20206;-67
2022/08/10 01:45:03;;;;;;;7.05;6.45;;;;;;;-142.91;100.00;56616.03;4980944;28;20200;-67
2022/08/10 01:50:29;;;;;;;6.07;5.68;;;;;;;-142.91;100.00;56616.03;4981188;28;22414;-68
2022/08/10 01:53:03;;;;;;;6.00;5.43;;;;;;;-142.91;100.00;56616.03;4981272;28;20213;-67
2022/08/10 01:55:32;;;;;;;39.83;24.17;;;;;;;-142.91;100.00;56616.03;4980752;28;20650;-67
2022/08/10 01:58:03;;;;;;;9.27;8.25;;;;;;;-142.91;100.00;56616.03;4979253;28;20207;-66
2022/08/10 02:00:33;;;;;;;8.40;7.18;;;;;;;-142.91;100.00;56616.03;4981504;28;20270;-67
2022/08/10 02:03:01;;;;;;;8.35;7.55;;;;;;;-142.91;100.00;56616.03;4981492;28;20633;-67
2022/08/10 02:05:31;;;;;;;7.38;6.75;;;;;;;-142.91;100.00;56616.03;4981176;28;20228;-67
2022/08/10 02:08:00;;;;;;;7.05;6.45;;;;;;;-142.91;100.00;56616.03;4980296;28;20208;-66
2022/08/10 02:10:29;;;;;;;7.05;6.55;;;;;;;-142.91;100.00;56616.03;4980980;28;20500;-68
2022/08/10 02:12:57;;;;;;;7.70;7.07;;;;;;;-142.91;100.00;56616.03;4980145;28;20244;-68
2022/08/10 02:15:28;;;;;;;7.50;6.82;;;;;;;-142.91;100.00;56616.03;4976559;28;20212;-67
2022/08/10 02:18:01;;;;;;;11.27;7.93;;;;;;;-142.91;100.00;56616.03;4978667;28;20205;-67
2022/08/10 02:20:32;;;;;;;8.30;7.60;;;;;;;-142.91;100.00;56616.03;4980343;28;20401;-68
2022/08/10 02:23:01;;;;;;;7.57;6.28;;;;;;;-142.91;100.00;56616.03;4981845;28;20199;-66
2022/08/10 02:25:30;;;;;;;8.25;7.40;;;;;;;-142.91;100.00;56616.03;4980324;28;20216;-68
2022/08/10 02:27:57;;;;;;;7.65;6.30;;;;;;;-142.91;100.00;56616.03;4982585;28;20750;-68
2022/08/10 02:30:25;;;;;;;5.95;5.45;;;;;;;-142.91;100.00;56616.03;4980733;28;20199;-68
2022/08/10 02:32:54;;;;;;;8.07;6.68;;;;;;;-142.91;100.00;56616.03;4981567;28;20867;-68
2022/08/10 02:35:24;;;;;;;6.55;5.95;;;;;;;-142.91;100.00;56616.03;4979332;28;20211;-67
2022/08/10 02:37:54;;;;;;;6.88;6.28;;;;;;;-142.91;100.00;56616.03;4981045;28;20702;-67
2022/08/10 02:40:24;;;;;;;6.95;6.25;;;;;;;-142.91;100.00;56616.03;4978516;28;20713;-68
2022/08/10 02:43:00;;;;;;;7.03;5.78;;;;;;;-142.91;100.00;56616.03;4979148;28;20307;-68
2022/08/10 02:45:36;;;;;;;7.15;6.47;;;;;;;-142.91;100.00;56616.03;4978996;28;21585;-67
2022/08/10 02:48:09;;;;;;;8.73;6.78;;;;;;;-142.91;100.00;56616.03;4983295;28;20212;-68
2022/08/10 02:50:41;;;;;;;6.53;5.97;;;;;;;-142.91;100.00;56616.03;4979044;28;20810;-68
2022/08/10 02:53:15;;;;;;;7.18;6.50;;;;;;;-142.91;100.00;56616.03;4980724;28;20215;-68
2022/08/10 02:55:48;;;;;;;7.00;6.30;;;;;;;-142.91;100.00;56616.03;4982562;28;20272;-67
2022/08/10 02:58:22;;;;;;;6.97;6.38;;;;;;;-142.91;100.00;56616.03;4979392;28;20204;-67
2022/08/10 03:00:53;;;;;;;7.03;6.43;;;;;;;-142.91;100.00;56616.03;4981234;28;20536;-67
2022/08/10 03:03:23;;;;;;;8.43;5.93;;;;;;;-142.91;100.00;56616.03;4979061;28;20207;-70
2022/08/10 03:05:59;;;;;;;10.25;6.38;;;;;;;-142.91;100.00;56616.03;4977630;28;20233;-68
2022/08/10 03:08:31;;;;;;;6.88;6.28;;;;;;;-142.91;100.00;56616.03;4981618;28;20203;-67
2022/08/10 03:11:01;;;;;;;8.05;5.80;;;;;;;-142.91;100.00;56616.03;4975072;28;20208;-68
2022/08/10 03:13:29;;;;;;;6.68;6.07;;;;;;;-142.91;100.00;56616.03;4977774;28;20300;-67
2022/08/10 03:15:57;;;;;;;6.53;6.10;;;;;;;-142.91;100.00;56616.03;4979571;28;20596;-68
2022/08/10 03:18:24;;;;;;;6.60;5.88;;;;;;;-142.91;100.00;56616.03;4980619;28;20825;-67
2022/08/10 03:20:55;;;;;;;8.65;5.93;;;;;;;-142.91;100.00;56616.03;4978121;28;20461;-67
2022/08/10 03:23:24;;;;;;;6.15;5.75;;;;;;;-142.91;100.00;56616.03;4982144;28;20676;-68
2022/08/10 03:25:55;;;;;;;8.80;6.30;;;;;;;-142.91;100.00;56616.03;4978606;28;20218;-67
2022/08/10 03:28:23;;;;;;;6.38;5.80;;;;;;;-142.91;100.00;56616.03;4979239;28;20216;-69
2022/08/10 03:30:51;;;;;;;6.53;6.07;;;;;;;-142.91;100.00;56616.03;4981325;28;20255;-68
2022/08/10 03:33:20;;;;;;;9.63;6.45;;;;;;;-142.91;100.00;56616.03;4980009;28;20199;-68
2022/08/10 03:35:47;;;;;;;7.00;6.43;;;;;;;-142.91;100.00;56616.03;4977802;28;20200;-68
2022/08/10 03:38:15;;;;;;;6.90;6.28;;;;;;;-142.91;100.00;56616.03;4981977;28;21272;-68
2022/08/10 03:40:45;;;;;;;6.53;5.68;;;;;;;-142.91;100.00;56616.03;4980089;28;20223;-68
2022/08/10 03:43:16;;;;;;;6.63;5.80;;;;;;;-142.91;100.00;56616.03;4981727;28;20203;-68
2022/08/10 03:45:44;;;;;;;6.10;5.65;;;;;;;-142.91;100.00;56616.03;4980114;28;20199;-67
2022/08/10 03:48:12;;;;;;;6.22;5.72;;;;;;;-142.91;100.00;56616.03;4978670;28;20192;-67
2022/08/10 03:50:40;;;;;;;6.85;6.25;;;;;;;-142.91;100.00;56616.03;4977667;28;20201;-68
2022/08/10 03:53:07;;;;;;;7.38;6.70;;;;;;;-142.91;100.00;56616.03;4977954;28;20209;-67
2022/08/10 03:55:36;;;;;;;6.63;6.13;;;;;;;-142.91;100.00;56616.03;4978678;28;20207;-68
2022/08/10 03:58:03;;;;;;;6.25;5.75;;;;;;;-142.91;100.00;56616.03;4980440;28;20200;-66
2022/08/10 04:00:33;;;;;;;7.72;5.82;;;;;;;-142.91;100.00;56616.03;4978829;28;20216;-68
2022/08/10 04:03:03;;;;;;;6.38;5.72;;;;;;;-142.91;100.00;56616.03;4978825;28;20721;-68
2022/08/10 04:05:30;;;;;;;6.80;6.20;;;;;;;-142.91;100.00;56616.03;4977673;28;20757;-70
2022/08/10 04:07:58;;;;;;;7.05;5.80;;;;;;;-142.91;100.00;56616.03;4980615;28;20211;-67
2022/08/10 04:10:25;;;;;;;10.27;7.50;;;;;;;-142.91;100.00;56616.03;4981006;28;20688;-67
2022/08/10 04:12:54;;;;;;;19.27;17.25;;;;;;;-142.91;100.00;56616.03;4980479;28;20240;-68
2022/08/10 04:15:23;;;;;;;11.20;10.10;;;;;;;-142.91;100.00;56616.03;4979807;28;20203;-67
2022/08/10 04:17:50;;;;;;;14.70;10.10;;;;;;;-142.91;100.00;56616.03;4981600;28;20212;-66
2022/08/10 04:20:20;;;;;;;8.68;8.02;;;;;;;-142.91;100.00;56616.03;4979567;28;20223;-69
2022/08/10 04:22:50;;;;;;;7.00;6.53;;;;;;;-142.91;100.00;56616.03;4979718;28;20227;-68
2022/08/10 04:25:18;;;;;;;10.10;6.70;;;;;;;-142.91;100.00;56616.03;4978717;28;20219;-68
2022/08/10 04:27:46;;;;;;;11.80;10.50;;;;;;;-142.91;100.00;56616.03;4979815;28;20809;-67
2022/08/10 04:30:14;;;;;;;12.88;11.73;;;;;;;-142.91;100.00;56616.03;4981039;28;20719;-69
2022/08/10 04:32:43;;;;;;;10.70;8.82;;;;;;;-142.91;100.00;56616.03;4980808;28;20207;-69
2022/08/10 04:35:11;;;;;;;9.88;7.15;;;;;;;-142.91;100.00;56616.03;4978261;28;20204;-67
2022/08/10 04:37:40;;;;;;;7.25;6.65;;;;;;;-142.91;100.00;56616.03;4980348;28;20212;-68
2022/08/10 04:40:09;;;;;;;8.20;7.07;;;;;;;-142.91;100.00;56616.03;4981431;28;20207;-68
2022/08/10 04:42:36;;;;;;;11.00;9.57;;;;;;;-142.91;100.00;56616.03;4980541;28;20207;-68
2022/08/10 04:45:10;;;;;;;14.05;12.60;;;;;;;-142.91;100.00;56616.03;4981325;28;20218;-68
2022/08/10 04:47:38;;;;;;;8.38;6.80;;;;;;;-142.91;100.00;56616.03;4984150;28;20202;-68
2022/08/10 04:50:06;;;;;;;8.90;6.80;;;;;;;-142.91;100.00;56616.03;4982961;28;20213;-69
2022/08/10 04:52:33;;;;;;;7.47;6.97;;;;;;;-142.91;100.00;56616.03;4984147;28;20208;-69
2022/08/10 04:55:00;;;;;;;7.40;6.72;;;;;;;-142.91;100.00;56616.03;4983094;28;20223;-69
2022/08/10 04:57:27;;;;;;;10.45;7.05;;;;;;;-142.91;100.00;56616.03;4981397;28;20211;-67
2022/08/10 04:59:54;;;;;;;7.57;7.03;;;;;;;-142.91;100.00;56616.03;4983585;28;22249;-68
2022/08/10 05:02:20;;;;;;;8.13;7.55;;;;;;;-142.91;100.00;56616.03;4984762;28;20731;-68
2022/08/10 05:04:48;;;;;;;7.57;6.90;;;;;;;-142.91;100.00;56616.03;4983345;28;20223;-66
2022/08/10 05:07:16;;;;;;;7.35;6.75;;;;;;;-142.91;100.00;56616.03;4983278;28;20222;-67
2022/08/10 05:09:44;;;;;;;8.13;7.30;;;;;;;-142.91;100.00;56616.03;4983203;28;20204;-68
2022/08/10 05:12:10;;;;;;;7.43;6.65;;;;;;;-142.91;100.00;56616.03;4983612;28;20673;-68
2022/08/10 05:14:37;;;;;;;7.15;6.60;;;;;;;-142.91;100.00;56616.03;4981509;28;20724;-68
2022/08/10 05:17:04;;;;;;;10.60;8.13;;;;;;;-142.91;100.00;56616.03;4980900;28;20208;-68
2022/08/10 05:19:31;;;;;;;7.22;6.63;;;;;;;-142.91;100.00;56616.03;4982500;28;20219;-68
2022/08/10 05:21:59;;;;;;;7.47;6.75;;;;;;;-142.91;100.00;56616.03;4983088;28;20729;-68
2022/08/10 05:24:26;;;;;;;6.78;6.38;;;;;;;-142.91;100.00;56616.03;4981471;28;20204;-68
2022/08/10 05:26:53;;;;;;;7.75;7.05;;;;;;;-142.91;100.00;56616.03;4981397;28;20223;-67
2022/08/10 05:29:19;;;;;;;7.88;7.20;;;;;;;-142.91;100.00;56616.03;4983205;28;20214;-69
2022/08/10 05:31:46;;;;;;;7.85;7.28;;;;;;;-142.91;100.00;56616.03;4980991;28;20213;-68
2022/08/10 05:34:14;;;;;;;8.18;7.18;;;;;;;-142.91;100.00;56616.03;4982713;28;20211;-68
2022/08/10 05:36:42;;;;;;;8.10;7.20;;;;;;;-142.91;100.00;56616.03;4981097;28;20212;-68
2022/08/10 05:39:12;;;;;;;8.82;8.18;;;;;;;-142.91;100.00;56616.03;4983230;28;20285;-68
2022/08/10 05:41:39;;;;;;;8.40;7.90;;;;;;;-142.91;100.00;56616.03;4981256;28;20232;-67
2022/08/10 05:44:06;;;;;;;9.35;8.50;;;;;;;-142.91;100.00;56616.03;4982242;28;20275;-68
2022/08/10 05:46:33;;;;;;;8.35;7.65;;;;;;;-142.91;100.00;56616.03;4978237;28;20269;-67
2022/08/10 05:49:00;;;;;;;8.57;8.00;;;;;;;-142.91;100.00;56616.03;4983121;28;20235;-66
2022/08/10 05:51:27;;;;;;;8.43;7.93;;;;;;;-142.91;100.00;56616.03;4982447;28;20204;-67
2022/08/10 05:53:55;;;;;;;8.48;7.68;;;;;;;-142.91;100.00;56616.03;4981698;28;23489;-67
2022/08/10 05:56:23;;;;;;;13.15;9.15;;;;;;;-142.91;100.00;56616.03;4982027;28;20269;-67
2022/08/10 05:58:50;;;;;;;8.88;8.07;;;;;;;-142.91;100.00;56616.03;4982847;28;20223;-65
2022/08/10 06:01:23;;;;;;;8.60;8.05;;;;;;;-142.91;100.00;56616.03;4980587;28;20343;-67
2022/08/10 06:03:57;;;;;;;8.88;8.38;;;;;;;-142.91;100.00;56616.03;4977892;28;20305;-68
2022/08/10 06:06:27;;;;;;;9.52;8.73;;;;;;;-142.91;100.00;56616.03;4982951;28;20236;-68
2022/08/10 06:08:57;;;;;;;9.18;8.48;;;;;;;-142.91;100.00;56616.03;4982069;28;20207;-68
2022/08/10 06:11:29;;;;;;;9.65;8.82;;;;;;;-142.91;100.00;56616.03;4981497;28;20204;-68
2022/08/10 06:16:43;;;;;;;8.55;7.95;;;;;;;-142.91;100.00;56616.03;4980021;28;20211;-67
2022/08/10 06:19:11;;;;;;;9.73;9.02;;;;;;;-142.91;100.00;56616.03;4982506;28;20205;-68
2022/08/10 06:21:38;;;;;;;9.95;9.18;;;;;;;-142.91;100.00;56616.03;4982632;28;20315;-69
2022/08/10 06:24:09;;;;;;;11.10;10.05;;;;;;;-142.91;100.00;56616.03;4982689;28;20203;-68
2022/08/10 06:26:38;;;;;;;11.30;10.60;;;;;;;-142.91;100.00;56616.03;4978930;28;20203;-67
2022/08/10 06:29:09;;;;;;;39.92;35.25;;;;;;;-142.91;100.00;56616.03;4981751;28;20195;-68
2022/08/10 06:31:40;;;;;;;23.60;21.17;;;;;;;-142.91;100.00;56616.03;4982909;28;20273;-66
2022/08/10 06:34:09;;;;;;;19.65;17.83;;;;;;;-142.91;100.00;56616.03;4979044;28;20206;-66
2022/08/10 06:36:37;;;;;;;13.30;12.20;;;;;;;-142.91;100.00;56616.03;4982958;28;20646;-68
2022/08/10 06:39:05;;;;;;;13.63;12.23;;;;;;;-142.91;100.00;56616.03;4982634;28;20215;-67
2022/08/10 06:41:36;;;;;;;13.30;12.40;;;;;;;-142.91;100.00;56616.03;4980526;28;20236;-69
2022/08/10 06:44:09;;;;;;;11.60;10.50;;;;;;;-142.91;100.00;56616.03;4981892;28;20204;-68
2022/08/10 06:46:39;;;;;;;11.90;11.00;;;;;;;-142.91;100.00;56616.03;4978547;28;20642;-71
2022/08/10 06:49:09;;;;;;;11.38;10.57;;;;;;;-142.91;100.00;56616.03;4981346;28;20268;-68
2022/08/10 06:51:39;;;;;;;12.00;11.10;;;;;;;-142.91;100.00;56616.03;4981969;28;20216;-69
2022/08/10 06:54:09;;;;;;;12.55;11.32;;;;;;;-142.91;100.00;56616.03;4982978;28;20262;-68
2022/08/10 06:56:41;;;;;;;11.43;10.43;;;;;;;-142.91;100.00;56616.03;4987079;28;20278;-67
2022/08/10 06:59:16;;;;;;;13.18;12.18;;;;;;;-142.91;100.00;56616.03;4979032;28;20685;-68
2022/08/10 07:01:45;;;;;;;13.98;12.68;;;;;;;-142.91;100.00;56616.03;4981434;28;20234;-68
2022/08/10 07:04:16;;;;;;;13.02;11.93;;;;;;;-142.91;100.00;56616.03;4981110;28;20712;-68
2022/08/10 07:06:46;;;;;;;16.05;13.88;;;;;;;-142.91;100.00;56616.03;4980337;28;20705;-68
2022/08/10 07:09:15;;;;;;;20.77;11.52;;;;;;;-142.91;100.00;56616.03;4979870;28;20263;-68
2022/08/10 07:11:44;;;;;;;22.08;12.50;;;;;;;-142.91;100.00;56616.03;4982717;28;20208;-69
2022/08/10 07:14:14;;;;;;;15.13;10.57;;;;;;;-142.91;100.00;56616.03;4980292;28;20756;-69
2022/08/10 07:16:42;;;;;;;15.25;12.85;;;;;;;-142.91;100.00;56616.03;4981276;28;20707;-68
2022/08/10 07:19:10;;;;;;;16.88;12.43;;;;;;;-142.91;100.00;56616.03;4980274;28;20282;-69
2022/08/10 07:21:39;;;;;;;14.93;13.38;;;;;;;-142.91;100.00;56616.03;4981555;28;20234;-69
2022/08/10 07:24:09;;;;;;;26.73;12.95;;;;;;;-142.91;100.00;56616.03;4980389;28;20262;-69
2022/08/10 07:26:39;;;;;;;59.75;44.05;;;;;;;-142.91;100.00;56616.03;4979846;28;21180;-69
2022/08/10 07:29:07;;;;;;;31.27;27.38;;;;;;;-142.91;100.00;56616.03;4983639;28;20226;-69
2022/08/10 07:31:37;;;;;;;32.67;28.80;;;;;;;-142.91;100.00;56616.03;4980939;28;20203;-67
2022/08/10 07:34:06;;;;;;;32.25;24.25;;;;;;;-142.91;100.00;56616.03;4979547;28;21177;-69
2022/08/10 07:36:35;;;;;;;25.52;20.42;;;;;;;-142.91;100.00;56616.03;4978154;28;20201;-68
2022/08/10 07:39:04;;;;;;;23.15;17.95;;;;;;;-142.91;100.00;56616.03;4980615;28;20278;-68
2022/08/10 07:41:33;;;;;;;18.75;13.90;;;;;;;-142.91;100.00;56616.03;4980782;28;20287;-67
2022/08/10 07:44:03;;;;;;;12.02;11.07;;;;;;;-142.91;100.00;56616.03;4979788;28;20212;-68
2022/08/10 07:46:33;;;;;;;14.00;11.23;;;;;;;-142.91;100.00;56616.03;4978272;28;20211;-68
2022/08/10 07:49:07;;;;;;;11.65;10.63;;;;;;;-142.91;100.00;56616.03;4980806;28;20288;-67
2022/08/10 07:51:36;;;;;;;12.57;11.43;;;;;;;-142.91;100.00;56616.03;4978177;28;21199;-67
2022/08/10 07:54:04;;;;;;;11.63;10.52;;;;;;;-142.91;100.00;56616.03;4982932;28;20199;-68
2022/08/10 07:56:34;;;;;;;11.40;10.50;;;;;;;-142.91;100.00;56616.03;4978908;28;20270;-67
2022/08/10 07:59:06;;;;;;;10.98;9.93;;;;;;;-142.91;100.00;56616.03;4980181;28;20211;-67
2022/08/10 08:01:37;;;;;;;10.50;9.68;;;;;;;-142.91;100.00;56616.03;4978798;28;20268;-67
2022/08/10 08:04:06;;;;;;;9.82;8.75;;;;;;;-142.91;100.00;56616.03;4978286;28;20686;-68
2022/08/10 08:06:33;;;;;;;11.00;9.35;;;;;;;-142.91;100.00;56616.03;4974927;28;20249;-68
2022/08/10 08:09:02;;;;;;;8.65;7.95;;;;;;;-142.91;100.00;56616.03;4981469;28;20212;-68
2022/08/10 08:11:31;;;;;;;9.55;8.70;;;;;;;-142.91;100.00;56616.03;4978227;28;20207;-67
2022/08/10 08:14:00;;;;;;;10.32;8.48;;;;;;;-142.91;100.00;56616.03;4977633;28;20236;-68
2022/08/10 08:16:27;;;;;;;10.00;9.15;;;;;;;-142.91;100.00;56616.03;4980059;28;20207;-67
2022/08/10 08:18:56;;;;;;;9.10;8.23;;;;;;;-142.91;100.00;56616.03;4977180;28;20754;-67
2022/08/10 08:21:24;;;;;;;36.30;25.75;;;;;;;-142.91;100.00;56616.03;4979320;28;20211;-69
2022/08/10 08:23:52;;;;;;;35.35;29.42;;;;;;;-142.91;100.00;56616.03;4975377;28;20207;-67
2022/08/10 08:26:21;;;;;;;16.33;14.73;;;;;;;-142.91;100.00;56616.03;4974715;28;20211;-68
2022/08/10 08:28:50;;;;;;;10.95;10.02;;;;;;;-142.91;100.00;56616.03;4978909;28;20212;-67
2022/08/10 08:31:22;;;;;;;11.18;10.48;;;;;;;-142.91;100.00;56616.03;4976423;28;20231;-68
2022/08/10 08:33:50;;;;;;;11.30;10.30;;;;;;;-142.91;100.00;56616.03;4976809;28;20200;-68
2022/08/10 08:36:19;;;;;;;9.57;8.88;;;;;;;-142.91;100.00;56616.03;4973300;28;20212;-67
2022/08/10 08:38:49;;;;;;;7.80;7.03;;;;;;;-142.91;100.00;56616.03;4978411;28;20307;-67
2022/08/10 08:41:32;;;;;;;8.85;8.25;;;;;;;-142.91;100.00;56616.03;4977187;28;20973;-67
2022/08/10 08:44:07;;;;;;;9.10;8.18;;;;;;;-142.91;100.00;56616.03;4979625;28;20208;-67
2022/08/10 08:47:07;;;;;;;8.82;8.23;;;;;;;-142.91;100.00;56616.03;4979569;28;20278;-67
2022/08/10 08:49:45;;;;;;;8.68;7.82;;;;;;;-142.91;100.00;56616.03;4974691;28;20410;-68
2022/08/10 08:52:39;;;;;;;8.02;7.53;;;;;;;-142.91;100.00;56616.03;4979089;28;20290;-68
2022/08/10 08:55:37;;;;;;;7.90;7.38;;;;;;;-142.91;100.00;56616.03;4980869;28;20258;-68
2022/08/10 08:58:20;;;;;;;7.47;6.75;;;;;;;-142.91;100.00;56616.03;4977166;28;20218;-67
2022/08/10 09:00:57;;;;;;;7.70;7.18;;;;;;;-142.91;100.00;56616.03;4979657;28;20208;-68
2022/08/10 09:03:43;;;;;;;7.60;7.00;;;;;;;-142.91;100.00;56616.03;4978033;28;20289;-67
2022/08/10 09:06:26;;;;;;;7.53;6.82;;;;;;;-142.91;100.00;56616.03;4978378;28;20714;-69
2022/08/10 09:09:15;;;;;;;8.15;7.40;;;;;;;-142.91;100.00;56616.03;4978833;28;20207;-68
2022/08/10 09:12:00;;;;;;;8.52;7.60;;;;;;;-142.91;100.00;56616.03;4978517;28;20673;-67
2022/08/10 09:14:35;;;;;;;8.13;7.30;;;;;;;-142.91;100.00;56616.03;4980890;28;20242;-69
2022/08/10 09:17:18;;;;;;;7.22;6.63;;;;;;;-142.91;100.00;56616.03;4978617;28;20218;-68
2022/08/10 09:19:50;;;;;;;6.30;5.47;;;;;;;-142.91;100.00;56616.03;4979677;28;20827;-66
2022/08/10 09:22:29;;;;;;;6.00;5.45;;;;;;;-142.91;100.00;56616.03;4978624;28;20235;-67
2022/08/10 09:25:00;;;;;;;5.75;5.13;;;;;;;-142.91;100.00;56616.03;4981151;28;20339;-66
2022/08/10 09:27:36;;;;;;;5.47;5.00;;;;;;;-142.91;100.00;56616.03;4981010;28;21452;-66
2022/08/10 09:30:07;;;;;;;5.00;4.70;;;;;;;-142.91;100.00;56616.03;4983392;28;22452;-66
2022/08/10 09:32:40;;;;;;;4.82;4.53;;;;;;;-142.91;100.00;56616.03;4981403;28;20361;-66
2022/08/10 09:35:15;;;;;;;21.88;17.10;;;;;;;-142.91;100.00;56616.03;4979168;28;20270;-65
2022/08/10 09:37:47;;;;;;;70.78;51.80;;;;;;;-142.91;100.00;56616.03;4982715;28;20207;-68
2022/08/10 09:40:24;;;;;;;20.77;18.38;;;;;;;-142.91;100.00;56616.03;4980287;28;20284;-66
2022/08/10 09:43:01;;;;;;;8.95;8.07;;;;;;;-142.91;100.00;56616.03;4980991;28;20235;-67
2022/08/10 09:45:38;;;;;;;5.82;4.63;;;;;;;-142.91;100.00;56616.03;4982577;28;20212;-68
2022/08/10 09:48:13;;;;;;;8.52;3.88;;;;;;;-142.91;100.00;56616.03;4980370;28;20203;-67
2022/08/10 09:50:54;;;;;;;4.28;3.97;;;;;;;-142.91;100.00;56616.03;4982303;28;20983;-67
2022/08/10 09:53:34;;;;;;;4.13;3.88;;;;;;;-142.91;100.00;56616.03;4983733;28;20298;-67
2022/08/10 09:56:15;;;;;;;4.47;4.18;;;;;;;-142.91;100.00;56616.03;4982188;28;20218;-67
2022/08/10 09:58:50;;;;;;;3.95;3.75;;;;;;;-142.91;100.00;56616.03;4980536;28;20211;-67
2022/08/10 10:01:22;;;;;;;7.57;5.30;;;;;;;-142.91;100.00;56616.03;4983228;28;20568;-65
2022/08/10 10:03:55;;;;;;;9.77;7.97;;;;;;;-142.91;100.00;56616.03;4983909;28;20308;-66
2022/08/10 10:06:33;;;;;;;7.40;6.80;;;;;;;-142.91;100.00;56616.03;4985994;28;20224;-65
2022/08/10 10:09:07;;;;;;;6.68;6.18;;;;;;;-142.91;100.00;56616.03;4979598;28;20218;-66
2022/08/10 10:11:43;;;;;;;5.25;4.85;;;;;;;-142.91;100.00;56616.03;4981540;28;20210;-66
2022/08/10 10:14:21;;;;;;;5.57;5.18;;;;;;;-142.91;100.00;56616.03;4979606;28;20245;-67
2022/08/10 10:17:02;;;;;;;5.20;4.65;;;;;;;-142.91;100.00;56616.03;4983046;28;20282;-68
2022/08/10 10:20:03;;;;;;;5.47;5.07;;;;;;;-142.91;100.00;56616.03;4979731;28;20212;-66
2022/08/10 10:22:41;;;;;;;6.47;5.88;;;;;;;-142.91;100.00;56616.03;4956141;28;20237;-68
2022/08/10 10:25:18;;;;;;;8.23;6.80;;;;;;;-142.91;100.00;56616.03;4980103;28;20294;-67
2022/08/10 10:27:51;;;;;;;6.47;4.82;;;;;;;-142.91;100.00;56616.03;4978018;28;20215;-66
2022/08/10 10:30:23;;;;;;;8.57;7.05;;;;;;;-142.91;100.00;56616.03;4982258;28;20263;-67
2022/08/10 10:32:58;;;;;;;6.57;5.57;;;;;;;-142.91;100.00;56616.03;4982836;28;20204;-67
2022/08/10 10:35:33;;;;;;;5.57;4.68;;;;;;;-142.91;100.00;56616.03;4979780;28;20261;-67
2022/08/10 10:38:02;;;;;;;6.10;5.50;;;;;;;-142.91;100.00;56616.03;4981194;28;20239;-66
2022/08/10 10:40:40;;;;;;;5.38;4.82;;;;;;;-142.91;100.00;56616.03;4980827;28;21361;-68
2022/08/10 10:43:20;;;;;;;6.55;5.32;;;;;;;-142.91;100.00;56616.03;4981447;28;20281;-68
2022/08/10 10:46:00;;;;;;;5.35;4.85;;;;;;;-142.91;100.00;56616.03;4980062;28;20219;-67
2022/08/10 10:48:40;;;;;;;8.45;5.43;;;;;;;-142.91;100.00;56616.03;4981486;28;20349;-67
2022/08/10 10:51:13;;;;;;;6.03;5.43;;;;;;;-142.91;100.00;56616.03;4982837;28;20204;-67
2022/08/10 10:53:47;;;;;;;7.28;5.47;;;;;;;-142.91;100.00;56616.03;4980771;28;20943;-67
2022/08/10 10:56:21;;;;;;;6.53;4.80;;;;;;;-142.91;100.00;56616.03;4980859;28;20484;-66
2022/08/10 10:59:02;;;;;;;6.75;4.40;;;;;;;-142.91;100.00;56616.03;4982315;28;20629;-66
2022/08/10 11:01:44;;;;;;;6.38;5.10;;;;;;;-142.91;100.00;56616.03;4979460;28;20208;-66
2022/08/10 11:04:21;;;;;;;10.18;6.35;;;;;;;-142.91;100.00;56616.03;4982259;28;20219;-67
2022/08/10 11:06:59;;;;;;;5.50;4.30;;;;;;;-142.91;100.00;56616.03;4981786;28;20224;-66
2022/08/10 11:09:34;;;;;;;6.30;5.50;;;;;;;-142.91;100.00;56616.03;4977752;28;20746;-65
2022/08/10 11:12:09;;;;;;;5.68;4.25;;;;;;;-142.91;100.00;56616.03;4980256;28;21252;-67
2022/08/10 11:14:41;;;;;;;4.75;4.28;;;;;;;-142.91;100.00;56616.03;4980282;28;20234;-66
2022/08/10 11:17:18;;;;;;;6.05;5.32;;;;;;;-142.91;100.00;56616.03;4980374;28;20208;-68
2022/08/10 11:19:56;;;;;;;6.70;5.43;;;;;;;-142.91;100.00;56616.03;4981123;28;20208;-69
2022/08/10 11:22:30;;;;;;;4.45;4.15;;;;;;;-142.91;100.00;56616.03;4981207;28;20712;-66
2022/08/10 11:25:01;;;;;;;5.78;4.35;;;;;;;-142.91;100.00;56616.03;4981720;28;20482;-65
2022/08/10 11:27:38;;;;;;;7.53;4.40;;;;;;;-142.91;100.00;56616.03;4977589;28;20204;-65
2022/08/10 11:30:12;;;;;;;6.97;4.28;;;;;;;-142.91;100.00;56616.03;4981178;28;20219;-65